This is the latest recevied weather packets stored in our database for station/object W4KUS-10. If no packets are shown the sender has not sent any weather packets the latest 10 day(s).
| Time | Temp. | Humidity | Pressure | Rain* | Wind** | Luminosity | Snow |
|---|---|---|---|---|---|---|---|
| 1777990840 | 24.44° C | 56% | 1017.8 hPa | 0 mm | - | - | - |
| 1777990540 | 23.89° C | 58% | 1017.7 hPa | 0 mm | - | - | - |
| 1777989940 | 23.89° C | 57% | 1017.8 hPa | 0 mm | - | - | - |
| 1777989640 | 23.33° C | 59% | 1017.7 hPa | 0 mm | - | - | - |
| 1777989340 | 23.33° C | 58% | 1017.7 hPa | 0 mm | - | - | - |
| 1777989040 | 23.33° C | 59% | 1017.7 hPa | 0 mm | - | - | - |
| 1777988740 | 23.33° C | 57% | 1017.6 hPa | 0 mm | - | - | - |
| 1777988440 | 23.33° C | 58% | 1017.5 hPa | 0 mm | - | - | - |
| 1777988140 | 23.33° C | 59% | 1017.5 hPa | 0 mm | - | - | - |
| 1777987840 | 23.33° C | 60% | 1017.6 hPa | 0 mm | - | - | - |
| 1777987540 | 23.33° C | 61% | 1017.6 hPa | 0 mm | - | - | - |
| 1777987240 | 22.78° C | 62% | 1017.6 hPa | 0 mm | - | - | - |
| 1777986940 | 22.78° C | 62% | 1017.5 hPa | 0 mm | - | - | - |
| 1777986640 | 22.78° C | 63% | 1017.5 hPa | 0 mm | - | - | - |
| 1777986340 | 22.78° C | 65% | 1017.5 hPa | 0 mm | - | - | - |
| 1777986040 | 22.22° C | 66% | 1017.5 hPa | 0 mm | - | - | - |
| 1777985740 | 22.22° C | 68% | 1017.5 hPa | 0 mm | - | - | - |
| 1777985440 | 21.67° C | 69% | 1017.5 hPa | 0 mm | - | - | - |
| 1777985140 | 21.67° C | 71% | 1017.3 hPa | 0 mm | - | - | - |
| 1777984840 | 21.11° C | 74% | 1017.3 hPa | 0 mm | - | - | - |
| 1777984540 | 20° C | 76% | 1017.4 hPa | 0 mm | - | - | - |
| 1777984240 | 19.44° C | 80% | 1017.3 hPa | 0 mm | - | - | - |
| 1777983940 | 18.89° C | 84% | 1017.3 hPa | 0 mm | - | - | - |
| 1777983640 | 17.78° C | 88% | 1017.3 hPa | 0 mm | - | - | - |
| 1777983340 | 17.22° C | 93% | 1017.3 hPa | 0 mm | - | - | - |
* Rain latest hour (hover to see other rain measurements)
** Current wind speed in m/s (hover to see current wind gust speed)